Hosmer, South Dakota
Current Conditions -  °F | °C
As of 1:52 PM on Thursday 18 Dec 2014 (Local Time) from KMBG Reporting Station
Haze Haze  
Wind Chill: 17°   Ceiling: 500
Heat Index: 27°   Visibility: 5mi
Dew Point: 24°   Wind: 12mph
Humidity: 89%   Direction: 160°SSE
Pressure: 30.02"   Gusts: NA
Location:  45.58°N, 99.47°W
Report Text: KMBG 181952Z AUTO 16010KT 5SM BR OVC005 M03/M04 A3002 RMK AO2 SLP193 T10281044
Loading
Personal Weather Stations






























Interactive Weather Map New forecast layout! Learn more

10-Day Weather Forecast

Advertisements
Track Severe Weather on mobile